Anchorage, Kentucky
Current Conditions -  °F | °C
As of 6:53 AM on Friday 19 Dec 2014 (Local Time) from KLOU Reporting Station
Clear Clear  
Wind Chill: -2°   Ceiling: Unl
Heat Index: -2°   Visibility: 7mi
Dew Point: -5°   Wind: 0mph
Humidity: 81%   Direction: NA
Pressure: 30.28"   Gusts: NA
Location:  38.2621°N, 85.5415°W
Report Text: KLOU 191153Z 00000KT 7SM CLR M02/M05 A3028 RMK AO2 SLP260 T10221050 11006 21022 51005
Loading
Personal Weather Stations






























Interactive Weather Map New forecast layout! Learn more

10-Day Weather Forecast

Advertisements
Track Severe Weather on mobile